sensor_id;sensor_type;location;lat;lon;timestamp;pressure;altitude;pressure_sealevel;temperature;humidity
51195;BME280;37259;49.972;19.850;2023-05-11T00:01:01;98860;;;6.6;73.5
51195;BME280;37259;49.972;19.850;2023-05-11T00:01:56;98860;;;6.6;73.4
51195;BME280;37259;49.972;19.850;2023-05-11T00:02:57;98860;;;6.6;73.4
51195;BME280;37259;49.972;19.850;2023-05-11T00:03:56;98860;;;6.5;73.3
51195;BME280;37259;49.972;19.850;2023-05-11T00:04:56;98860;;;6.5;73.3
51195;BME280;37259;49.972;19.850;2023-05-11T00:05:56;98860;;;6.5;73.3
51195;BME280;37259;49.972;19.850;2023-05-11T00:06:56;98860;;;6.5;73.3
51195;BME280;37259;49.972;19.850;2023-05-11T00:07:56;98860;;;6.5;73.3
51195;BME280;37259;49.972;19.850;2023-05-11T00:08:56;98860;;;6.4;73.4
51195;BME280;37259;49.972;19.850;2023-05-11T00:09:56;98860;;;6.4;73.6
51195;BME280;37259;49.972;19.850;2023-05-11T00:10:56;98860;;;6.4;73.6
51195;BME280;37259;49.972;19.850;2023-05-11T00:11:56;98860;;;6.4;74.2
51195;BME280;37259;49.972;19.850;2023-05-11T00:12:56;98860;;;6.4;74.2
51195;BME280;37259;49.972;19.850;2023-05-11T00:13:56;98860;;;6.3;74.8
51195;BME280;37259;49.972;19.850;2023-05-11T00:14:56;98860;;;6.3;74.8
51195;BME280;37259;49.972;19.850;2023-05-11T00:15:56;98860;;;6.3;74.9
51195;BME280;37259;49.972;19.850;2023-05-11T00:16:56;98860;;;6.3;74.7
51195;BME280;37259;49.972;19.850;2023-05-11T00:17:56;98860;;;6.3;74.6
51195;BME280;37259;49.972;19.850;2023-05-11T00:18:56;98860;;;6.3;74.6
51195;BME280;37259;49.972;19.850;2023-05-11T00:19:56;98860;;;6.3;74.4
51195;BME280;37259;49.972;19.850;2023-05-11T00:20:56;98860;;;6.3;74.4
51195;BME280;37259;49.972;19.850;2023-05-11T00:21:57;98860;;;6.2;74.4
51195;BME280;37259;49.972;19.850;2023-05-11T00:22:56;98860;;;6.2;74.4
51195;BME280;37259;49.972;19.850;2023-05-11T00:23:56;98860;;;6.2;74.3
51195;BME280;37259;49.972;19.850;2023-05-11T00:24:56;98860;;;6.2;74.3
51195;BME280;37259;49.972;19.850;2023-05-11T00:25:56;98850;;;6.2;74.2
51195;BME280;37259;49.972;19.850;2023-05-11T00:26:56;98850;;;6.2;74.1
51195;BME280;37259;49.972;19.850;2023-05-11T00:27:56;98850;;;6.2;74.1
51195;BME280;37259;49.972;19.850;2023-05-11T00:28:56;98850;;;6.1;74.1
51195;BME280;37259;49.972;19.850;2023-05-11T00:29:56;98850;;;6.1;74
51195;BME280;37259;49.972;19.850;2023-05-11T00:30:56;98850;;;6.1;74
51195;BME280;37259;49.972;19.850;2023-05-11T00:31:56;98850;;;6.1;74
51195;BME280;37259;49.972;19.850;2023-05-11T00:32:56;98850;;;6.1;74.2
51195;BME280;37259;49.972;19.850;2023-05-11T00:33:56;98850;;;6.1;74.3
51195;BME280;37259;49.972;19.850;2023-05-11T00:34:56;98850;;;6.1;74.3
51195;BME280;37259;49.972;19.850;2023-05-11T00:35:56;98850;;;6.1;74.3
51195;BME280;37259;49.972;19.850;2023-05-11T00:36:56;98850;;;6.1;74.3
51195;BME280;37259;49.972;19.850;2023-05-11T00:37:56;98850;;;6.1;74.3
51195;BME280;37259;49.972;19.850;2023-05-11T00:38:56;98850;;;6;74.5
51195;BME280;37259;49.972;19.850;2023-05-11T00:39:56;98850;;;6;74.5
51195;BME280;37259;49.972;19.850;2023-05-11T00:40:56;98850;;;6;74.8
51195;BME280;37259;49.972;19.850;2023-05-11T00:41:56;98850;;;6;74.9
51195;BME280;37259;49.972;19.850;2023-05-11T00:42:56;98850;;;6;74.9
51195;BME280;37259;49.972;19.850;2023-05-11T00:43:56;98850;;;6;75.3
51195;BME280;37259;49.972;19.850;2023-05-11T00:44:56;98850;;;6;75.6
51195;BME280;37259;49.972;19.850;2023-05-11T00:45:57;98850;;;6;75.6
51195;BME280;37259;49.972;19.850;2023-05-11T00:46:56;98850;;;6;76
51195;BME280;37259;49.972;19.850;2023-05-11T00:47:56;98850;;;6;76
51195;BME280;37259;49.972;19.850;2023-05-11T00:48:56;98850;;;6.1;76.8
51195;BME280;37259;49.972;19.850;2023-05-11T00:49:56;98850;;;6.1;76.8
51195;BME280;37259;49.972;19.850;2023-05-11T00:50:56;98850;;;6.1;76.9
51195;BME280;37259;49.972;19.850;2023-05-11T00:51:56;98850;;;6.1;76.8
51195;BME280;37259;49.972;19.850;2023-05-11T00:52:56;98850;;;6.1;76.7
51195;BME280;37259;49.972;19.850;2023-05-11T00:53:57;98850;;;6.1;76.6
51195;BME280;37259;49.972;19.850;2023-05-11T00:54:56;98850;;;6.1;76.6
51195;BME280;37259;49.972;19.850;2023-05-11T00:55:57;98850;;;6.2;76.6
51195;BME280;37259;49.972;19.850;2023-05-11T00:56:56;98850;;;6.2;76.6
51195;BME280;37259;49.972;19.850;2023-05-11T00:57:56;98850;;;6.2;76.6
51195;BME280;37259;49.972;19.850;2023-05-11T00:58:56;98850;;;6.2;76.5
51195;BME280;37259;49.972;19.850;2023-05-11T00:59:56;98850;;;6.2;76.4
51195;BME280;37259;49.972;19.850;2023-05-11T01:00:56;98850;;;6.2;76.3
51195;BME280;37259;49.972;19.850;2023-05-11T01:01:56;98850;;;6.2;76.5
51195;BME280;37259;49.972;19.850;2023-05-11T01:02:56;98850;;;6.2;76.5
51195;BME280;37259;49.972;19.850;2023-05-11T01:03:56;98840;;;6.3;76.9
51195;BME280;37259;49.972;19.850;2023-05-11T01:04:56;98840;;;6.3;76.9
51195;BME280;37259;49.972;19.850;2023-05-11T01:06:00;98840;;;6.3;77.1
51195;BME280;37259;49.972;19.850;2023-05-11T01:06:59;98840;;;6.3;77.1
51195;BME280;37259;49.972;19.850;2023-05-11T01:07:57;98840;;;6.3;76.8
51195;BME280;37259;49.972;19.850;2023-05-11T01:08:59;98840;;;6.3;76.7
51195;BME280;37259;49.972;19.850;2023-05-11T01:09:58;98840;;;6.3;76.7
51195;BME280;37259;49.972;19.850;2023-05-11T01:10:57;98840;;;6.3;76.7
51195;BME280;37259;49.972;19.850;2023-05-11T01:11:59;98840;;;6.3;76.7
51195;BME280;37259;49.972;19.850;2023-05-11T01:12:57;98840;;;6.3;76.7
51195;BME280;37259;49.972;19.850;2023-05-11T01:13:58;98840;;;6.3;76.5
51195;BME280;37259;49.972;19.850;2023-05-11T01:14:58;98840;;;6.3;76.5
51195;BME280;37259;49.972;19.850;2023-05-11T01:15:56;98840;;;6.3;76.2
51195;BME280;37259;49.972;19.850;2023-05-11T01:16:58;98840;;;6.3;76.2
51195;BME280;37259;49.972;19.850;2023-05-11T01:17:57;98840;;;6.3;76
51195;BME280;37259;49.972;19.850;2023-05-11T01:18:58;98840;;;6.3;75.9
51195;BME280;37259;49.972;19.850;2023-05-11T01:19:57;98850;;;6.3;75.8
51195;BME280;37259;49.972;19.850;2023-05-11T01:20:57;98840;;;6.3;75.8
51195;BME280;37259;49.972;19.850;2023-05-11T01:21:56;98840;;;6.3;75.6
51195;BME280;37259;49.972;19.850;2023-05-11T01:23:09;98840;;;6.3;75.6
51195;BME280;37259;49.972;19.850;2023-05-11T01:23:59;98840;;;6.2;75.8
51195;BME280;37259;49.972;19.850;2023-05-11T01:25:04;98840;;;6.2;75.8
51195;BME280;37259;49.972;19.850;2023-05-11T01:26:03;98850;;;6.1;76.4
51195;BME280;37259;49.972;19.850;2023-05-11T01:27:02;98850;;;6.1;76.4
51195;BME280;37259;49.972;19.850;2023-05-11T01:28:09;98850;;;6.1;76.5
51195;BME280;37259;49.972;19.850;2023-05-11T01:29:00;98850;;;6.1;76.5
51195;BME280;37259;49.972;19.850;2023-05-11T01:30:16;98850;;;6.1;76.2
51195;BME280;37259;49.972;19.850;2023-05-11T01:30:57;98850;;;6.1;76.2
51195;BME280;37259;49.972;19.850;2023-05-11T01:31:56;98850;;;6.1;76.2
51195;BME280;37259;49.972;19.850;2023-05-11T01:32:57;98850;;;6.1;76.2
51195;BME280;37259;49.972;19.850;2023-05-11T01:33:57;98850;;;6.1;76.1
51195;BME280;37259;49.972;19.850;2023-05-11T01:34:58;98850;;;6.1;76.1
51195;BME280;37259;49.972;19.850;2023-05-11T01:35:58;98850;;;6;75.9
51195;BME280;37259;49.972;19.850;2023-05-11T01:36:58;98850;;;6;75.9
51195;BME280;37259;49.972;19.850;2023-05-11T01:37:57;98850;;;6;75.9
51195;BME280;37259;49.972;19.850;2023-05-11T01:38:57;98850;;;6;75.9
51195;BME280;37259;49.972;19.850;2023-05-11T01:39:57;98850;;;6;75.8
51195;BME280;37259;49.972;19.850;2023-05-11T01:40:56;98850;;;5.9;75.8
51195;BME280;37259;49.972;19.850;2023-05-11T01:41:57;98850;;;5.9;75.7
51195;BME280;37259;49.972;19.850;2023-05-11T01:42:57;98850;;;5.9;75.7
51195;BME280;37259;49.972;19.850;2023-05-11T01:43:57;98850;;;5.9;75.7
51195;BME280;37259;49.972;19.850;2023-05-11T01:44:56;98850;;;5.9;75.7
51195;BME280;37259;49.972;19.850;2023-05-11T01:45:58;98850;;;5.9;75.7
51195;BME280;37259;49.972;19.850;2023-05-11T01:46:57;98850;;;5.9;75.7
51195;BME280;37259;49.972;19.850;2023-05-11T01:47:56;98850;;;5.9;75.7
51195;BME280;37259;49.972;19.850;2023-05-11T01:48:56;98850;;;5.9;75.7
51195;BME280;37259;49.972;19.850;2023-05-11T01:49:56;98850;;;5.8;75.6
51195;BME280;37259;49.972;19.850;2023-05-11T01:50:58;98850;;;5.8;75.6
51195;BME280;37259;49.972;19.850;2023-05-11T01:51:56;98850;;;5.8;75.8
51195;BME280;37259;49.972;19.850;2023-05-11T01:52:56;98850;;;5.8;75.9
51195;BME280;37259;49.972;19.850;2023-05-11T01:53:56;98850;;;5.8;76.1
51195;BME280;37259;49.972;19.850;2023-05-11T01:54:56;98850;;;5.8;76.1
51195;BME280;37259;49.972;19.850;2023-05-11T01:55:57;98850;;;5.8;76.4
51195;BME280;37259;49.972;19.850;2023-05-11T01:56:57;98850;;;5.8;76.4
51195;BME280;37259;49.972;19.850;2023-05-11T01:57:56;98850;;;5.8;76.7
51195;BME280;37259;49.972;19.850;2023-05-11T01:58:56;98850;;;5.8;76.7
51195;BME280;37259;49.972;19.850;2023-05-11T01:59:56;98850;;;5.7;77.5
51195;BME280;37259;49.972;19.850;2023-05-11T02:00:56;98850;;;5.7;77.5
51195;BME280;37259;49.972;19.850;2023-05-11T02:01:56;98850;;;5.7;77.5
51195;BME280;37259;49.972;19.850;2023-05-11T02:02:56;98850;;;5.7;77.5
51195;BME280;37259;49.972;19.850;2023-05-11T02:03:57;98850;;;5.7;77.4
51195;BME280;37259;49.972;19.850;2023-05-11T02:04:56;98850;;;5.7;77.4
51195;BME280;37259;49.972;19.850;2023-05-11T02:05:56;98850;;;5.7;77.4
51195;BME280;37259;49.972;19.850;2023-05-11T02:06:57;98850;;;5.7;77.4
51195;BME280;37259;49.972;19.850;2023-05-11T02:07:56;98860;;;5.7;77.4
51195;BME280;37259;49.972;19.850;2023-05-11T02:08:56;98860;;;5.7;77.4
51195;BME280;37259;49.972;19.850;2023-05-11T02:09:56;98860;;;5.6;77.2
51195;BME280;37259;49.972;19.850;2023-05-11T02:10:57;98860;;;5.6;77.1
51195;BME280;37259;49.972;19.850;2023-05-11T02:11:56;98860;;;5.6;77.1
51195;BME280;37259;49.972;19.850;2023-05-11T02:12:57;98860;;;5.6;76.9
51195;BME280;37259;49.972;19.850;2023-05-11T02:13:57;98860;;;5.6;76.8
51195;BME280;37259;49.972;19.850;2023-05-11T02:14:56;98860;;;5.6;76.8
51195;BME280;37259;49.972;19.850;2023-05-11T02:15:56;98860;;;5.5;76.8
51195;BME280;37259;49.972;19.850;2023-05-11T02:16:56;98860;;;5.5;76.7
51195;BME280;37259;49.972;19.850;2023-05-11T02:17:57;98860;;;5.5;76.7
51195;BME280;37259;49.972;19.850;2023-05-11T02:18:57;98860;;;5.5;76.6
51195;BME280;37259;49.972;19.850;2023-05-11T02:19:56;98860;;;5.5;76.6
51195;BME280;37259;49.972;19.850;2023-05-11T02:20:57;98860;;;5.5;76.6
51195;BME280;37259;49.972;19.850;2023-05-11T02:21:56;98860;;;5.5;76.6
51195;BME280;37259;49.972;19.850;2023-05-11T02:22:56;98860;;;5.4;76.5
51195;BME280;37259;49.972;19.850;2023-05-11T02:23:56;98860;;;5.4;76.5
51195;BME280;37259;49.972;19.850;2023-05-11T02:24:56;98860;;;5.4;76.8
51195;BME280;37259;49.972;19.850;2023-05-11T02:25:56;98860;;;5.3;77.1
51195;BME280;37259;49.972;19.850;2023-05-11T02:26:56;98860;;;5.3;77.8
51195;BME280;37259;49.972;19.850;2023-05-11T02:27:56;98860;;;5.3;77.8
51195;BME280;37259;49.972;19.850;2023-05-11T02:28:56;98860;;;5.3;78.7
51195;BME280;37259;49.972;19.850;2023-05-11T02:29:56;98860;;;5.2;78.8
51195;BME280;37259;49.972;19.850;2023-05-11T02:31:11;98860;;;5.2;79
51195;BME280;37259;49.972;19.850;2023-05-11T02:31:58;98860;;;5.2;79
51195;BME280;37259;49.972;19.850;2023-05-11T02:32:57;98860;;;5.1;79.2
51195;BME280;37259;49.972;19.850;2023-05-11T02:33:59;98860;;;5.1;79.2
51195;BME280;37259;49.972;19.850;2023-05-11T02:34:57;98860;;;5.1;79.2
51195;BME280;37259;49.972;19.850;2023-05-11T02:35:57;98860;;;5.1;79.1
51195;BME280;37259;49.972;19.850;2023-05-11T02:36:57;98860;;;5.1;79.1
51195;BME280;37259;49.972;19.850;2023-05-11T02:37:58;98860;;;5.1;79.3
51195;BME280;37259;49.972;19.850;2023-05-11T02:38:57;98870;;;5.1;79.3
51195;BME280;37259;49.972;19.850;2023-05-11T02:39:57;98870;;;5.1;79.3
51195;BME280;37259;49.972;19.850;2023-05-11T02:40:57;98870;;;5.1;79.1
51195;BME280;37259;49.972;19.850;2023-05-11T02:41:57;98870;;;5.1;79.1
51195;BME280;37259;49.972;19.850;2023-05-11T02:42:57;98870;;;5.1;79.1
51195;BME280;37259;49.972;19.850;2023-05-11T02:43:58;98870;;;5;79.2
51195;BME280;37259;49.972;19.850;2023-05-11T02:44:57;98870;;;5;79.4
51195;BME280;37259;49.972;19.850;2023-05-11T02:45:57;98870;;;5;79.7
51195;BME280;37259;49.972;19.850;2023-05-11T02:46:56;98870;;;5;79.7
51195;BME280;37259;49.972;19.850;2023-05-11T02:47:57;98870;;;5;79.8
51195;BME280;37259;49.972;19.850;2023-05-11T02:48:57;98870;;;5;79.8
51195;BME280;37259;49.972;19.850;2023-05-11T02:49:57;98870;;;5;79.8
51195;BME280;37259;49.972;19.850;2023-05-11T02:50:57;98870;;;5;79.8
51195;BME280;37259;49.972;19.850;2023-05-11T02:51:57;98870;;;5;79.8
51195;BME280;37259;49.972;19.850;2023-05-11T02:52:57;98870;;;5;79.8
51195;BME280;37259;49.972;19.850;2023-05-11T02:53:56;98870;;;5;79.8
51195;BME280;37259;49.972;19.850;2023-05-11T02:54:57;98870;;;5;79.8
51195;BME280;37259;49.972;19.850;2023-05-11T02:55:56;98870;;;5;79.9
51195;BME280;37259;49.972;19.850;2023-05-11T02:56:57;98870;;;5;80
51195;BME280;37259;49.972;19.850;2023-05-11T02:57:56;98870;;;5;80
51195;BME280;37259;49.972;19.850;2023-05-11T02:58:56;98870;;;5;80
51195;BME280;37259;49.972;19.850;2023-05-11T02:59:56;98870;;;5;80
51195;BME280;37259;49.972;19.850;2023-05-11T03:00:57;98860;;;5;80.1
51195;BME280;37259;49.972;19.850;2023-05-11T03:01:56;98860;;;5;80.1
51195;BME280;37259;49.972;19.850;2023-05-11T03:02:56;98860;;;5;80.1
51195;BME280;37259;49.972;19.850;2023-05-11T03:03:56;98860;;;5;80.2
51195;BME280;37259;49.972;19.850;2023-05-11T03:04:56;98860;;;5;80.2
51195;BME280;37259;49.972;19.850;2023-05-11T03:05:57;98860;;;5;80.2
51195;BME280;37259;49.972;19.850;2023-05-11T03:06:56;98860;;;5;80.4
51195;BME280;37259;49.972;19.850;2023-05-11T03:07:57;98860;;;5;80.4
51195;BME280;37259;49.972;19.850;2023-05-11T03:08:56;98860;;;5;80.4
51195;BME280;37259;49.972;19.850;2023-05-11T03:09:56;98860;;;5.1;80.5
51195;BME280;37259;49.972;19.850;2023-05-11T03:10:57;98860;;;5.1;80.6
51195;BME280;37259;49.972;19.850;2023-05-11T03:11:56;98870;;;5.1;80.6
51195;BME280;37259;49.972;19.850;2023-05-11T03:12:56;98870;;;5.1;80.6
51195;BME280;37259;49.972;19.850;2023-05-11T03:13:56;98870;;;5.1;80.5
51195;BME280;37259;49.972;19.850;2023-05-11T03:14:57;98870;;;5.1;80.5
51195;BME280;37259;49.972;19.850;2023-05-11T03:15:56;98870;;;5.1;80.4
51195;BME280;37259;49.972;19.850;2023-05-11T03:16:56;98870;;;5.1;80.4
51195;BME280;37259;49.972;19.850;2023-05-11T03:17:56;98870;;;5.1;80.4
51195;BME280;37259;49.972;19.850;2023-05-11T03:18:56;98870;;;5.2;80.3
51195;BME280;37259;49.972;19.850;2023-05-11T03:19:57;98870;;;5.2;80.2
51195;BME280;37259;49.972;19.850;2023-05-11T03:20:56;98870;;;5.2;80.2
51195;BME280;37259;49.972;19.850;2023-05-11T03:21:57;98870;;;5.2;80.3
51195;BME280;37259;49.972;19.850;2023-05-11T03:22:56;98870;;;5.2;80.3
51195;BME280;37259;49.972;19.850;2023-05-11T03:23:56;98870;;;5.2;80.3
51195;BME280;37259;49.972;19.850;2023-05-11T03:24:56;98870;;;5.3;80.4
51195;BME280;37259;49.972;19.850;2023-05-11T03:25:57;98870;;;5.3;80.4
51195;BME280;37259;49.972;19.850;2023-05-11T03:26:56;98870;;;5.3;80.3
51195;BME280;37259;49.972;19.850;2023-05-11T03:27:56;98870;;;5.3;80.5
51195;BME280;37259;49.972;19.850;2023-05-11T03:28:56;98870;;;5.3;80.5
51195;BME280;37259;49.972;19.850;2023-05-11T03:29:56;98870;;;5.3;80.5
51195;BME280;37259;49.972;19.850;2023-05-11T03:30:56;98870;;;5.3;80.5
51195;BME280;37259;49.972;19.850;2023-05-11T03:31:57;98880;;;5.3;80.4
51195;BME280;37259;49.972;19.850;2023-05-11T03:32:56;98880;;;5.3;80.4
51195;BME280;37259;49.972;19.850;2023-05-11T03:33:56;98880;;;5.4;80.5
51195;BME280;37259;49.972;19.850;2023-05-11T03:34:56;98880;;;5.4;80.5
51195;BME280;37259;49.972;19.850;2023-05-11T03:35:56;98880;;;5.4;80.6
51195;BME280;37259;49.972;19.850;2023-05-11T03:36:56;98880;;;5.4;80.7
51195;BME280;37259;49.972;19.850;2023-05-11T03:37:56;98880;;;5.4;80.7
51195;BME280;37259;49.972;19.850;2023-05-11T03:38:56;98880;;;5.5;80.6
51195;BME280;37259;49.972;19.850;2023-05-11T03:39:57;98880;;;5.5;80.6
51195;BME280;37259;49.972;19.850;2023-05-11T03:40:56;98880;;;5.6;80.5
51195;BME280;37259;49.972;19.850;2023-05-11T03:41:56;98880;;;5.6;80.5
51195;BME280;37259;49.972;19.850;2023-05-11T03:42:56;98880;;;5.6;80.5
51195;BME280;37259;49.972;19.850;2023-05-11T03:43:57;98880;;;5.6;80.5
51195;BME280;37259;49.972;19.850;2023-05-11T03:44:56;98880;;;5.6;80.5
51195;BME280;37259;49.972;19.850;2023-05-11T03:45:56;98880;;;5.6;80.4
51195;BME280;37259;49.972;19.850;2023-05-11T03:46:56;98880;;;5.7;80.4
51195;BME280;37259;49.972;19.850;2023-05-11T03:47:56;98880;;;5.7;80.4
51195;BME280;37259;49.972;19.850;2023-05-11T03:48:56;98880;;;5.7;80.2
51195;BME280;37259;49.972;19.850;2023-05-11T03:49:56;98880;;;5.7;80.2
51195;BME280;37259;49.972;19.850;2023-05-11T03:50:56;98880;;;5.7;80.1
51195;BME280;37259;49.972;19.850;2023-05-11T03:51:56;98880;;;5.7;80.1
51195;BME280;37259;49.972;19.850;2023-05-11T03:52:56;98880;;;5.8;80
51195;BME280;37259;49.972;19.850;2023-05-11T03:53:57;98880;;;5.8;80
51195;BME280;37259;49.972;19.850;2023-05-11T03:54:56;98880;;;5.8;79.9
51195;BME280;37259;49.972;19.850;2023-05-11T03:55:56;98880;;;5.8;79.8
51195;BME280;37259;49.972;19.850;2023-05-11T03:56:56;98880;;;5.8;79.8
51195;BME280;37259;49.972;19.850;2023-05-11T03:57:56;98880;;;5.9;79.7
51195;BME280;37259;49.972;19.850;2023-05-11T03:58:56;98880;;;5.9;79.7
51195;BME280;37259;49.972;19.850;2023-05-11T03:59:56;98880;;;5.9;79.7
51195;BME280;37259;49.972;19.850;2023-05-11T04:00:56;98880;;;5.9;79.7
51195;BME280;37259;49.972;19.850;2023-05-11T04:01:56;98880;;;6;79.5
51195;BME280;37259;49.972;19.850;2023-05-11T04:02:56;98880;;;6;79.5
51195;BME280;37259;49.972;19.850;2023-05-11T04:03:56;98880;;;6;79.4
51195;BME280;37259;49.972;19.850;2023-05-11T04:04:56;98880;;;6;79.4
51195;BME280;37259;49.972;19.850;2023-05-11T04:05:56;98880;;;6;79.4
51195;BME280;37259;49.972;19.850;2023-05-11T04:06:57;98880;;;6.1;79.3
51195;BME280;37259;49.972;19.850;2023-05-11T04:07:56;98880;;;6.1;79.3
51195;BME280;37259;49.972;19.850;2023-05-11T04:08:56;98880;;;6.1;79.2
51195;BME280;37259;49.972;19.850;2023-05-11T04:09:57;98880;;;6.1;79.2
51195;BME280;37259;49.972;19.850;2023-05-11T04:10:56;98890;;;6.1;79.2
51195;BME280;37259;49.972;19.850;2023-05-11T04:11:56;98880;;;6.2;79.3
51195;BME280;37259;49.972;19.850;2023-05-11T04:12:56;98890;;;6.2;79.2
51195;BME280;37259;49.972;19.850;2023-05-11T04:13:56;98890;;;6.2;79.2
51195;BME280;37259;49.972;19.850;2023-05-11T04:14:56;98890;;;6.2;79.1
51195;BME280;37259;49.972;19.850;2023-05-11T04:15:57;98890;;;6.2;79.1
51195;BME280;37259;49.972;19.850;2023-05-11T04:16:56;98890;;;6.3;79
51195;BME280;37259;49.972;19.850;2023-05-11T04:17:56;98890;;;6.3;78.8
51195;BME280;37259;49.972;19.850;2023-05-11T04:18:56;98890;;;6.3;78.8
51195;BME280;37259;49.972;19.850;2023-05-11T04:19:56;98890;;;6.4;78.7
51195;BME280;37259;49.972;19.850;2023-05-11T04:20:56;98890;;;6.4;78.7
51195;BME280;37259;49.972;19.850;2023-05-11T04:21:56;98890;;;6.4;78.4
51195;BME280;37259;49.972;19.850;2023-05-11T04:22:57;98890;;;6.4;78.4
51195;BME280;37259;49.972;19.850;2023-05-11T04:23:56;98890;;;6.4;78.2
51195;BME280;37259;49.972;19.850;2023-05-11T04:24:56;98890;;;6.4;78.1
51195;BME280;37259;49.972;19.850;2023-05-11T04:25:57;98890;;;6.5;78.2
51195;BME280;37259;49.972;19.850;2023-05-11T04:26:56;98890;;;6.5;78.2
51195;BME280;37259;49.972;19.850;2023-05-11T04:27:56;98890;;;6.5;78.2
51195;BME280;37259;49.972;19.850;2023-05-11T04:28:56;98890;;;6.6;78.3
51195;BME280;37259;49.972;19.850;2023-05-11T04:29:56;98890;;;6.6;77.9
51195;BME280;37259;49.972;19.850;2023-05-11T04:30:56;98890;;;6.6;77.9
51195;BME280;37259;49.972;19.850;2023-05-11T04:31:56;98890;;;6.7;77.6
51195;BME280;37259;49.972;19.850;2023-05-11T04:32:56;98890;;;6.7;77.5
51195;BME280;37259;49.972;19.850;2023-05-11T04:33:56;98890;;;6.7;77.5
51195;BME280;37259;49.972;19.850;2023-05-11T04:34:56;98890;;;6.7;77.4
51195;BME280;37259;49.972;19.850;2023-05-11T04:35:56;98890;;;6.7;77.4
51195;BME280;37259;49.972;19.850;2023-05-11T04:36:56;98890;;;6.8;77.3
51195;BME280;37259;49.972;19.850;2023-05-11T04:37:56;98890;;;6.8;77.3
51195;BME280;37259;49.972;19.850;2023-05-11T04:38:56;98890;;;6.9;77.1
51195;BME280;37259;49.972;19.850;2023-05-11T04:39:56;98890;;;7;77
51195;BME280;37259;49.972;19.850;2023-05-11T04:40:56;98890;;;7;77
51195;BME280;37259;49.972;19.850;2023-05-11T04:41:58;98880;;;7;76.5
51195;BME280;37259;49.972;19.850;2023-05-11T04:42:56;98880;;;7.1;76.5
51195;BME280;37259;49.972;19.850;2023-05-11T04:43:56;98880;;;7.1;76.2
51195;BME280;37259;49.972;19.850;2023-05-11T04:44:56;98880;;;7.1;76.2
51195;BME280;37259;49.972;19.850;2023-05-11T04:45:56;98880;;;7.2;76.1
51195;BME280;37259;49.972;19.850;2023-05-11T04:46:56;98880;;;7.2;76.1
51195;BME280;37259;49.972;19.850;2023-05-11T04:47:57;98880;;;7.2;76
51195;BME280;37259;49.972;19.850;2023-05-11T04:48:56;98880;;;7.2;76
51195;BME280;37259;49.972;19.850;2023-05-11T04:49:56;98880;;;7.3;75.9
51195;BME280;37259;49.972;19.850;2023-05-11T04:50:56;98880;;;7.3;75.9
51195;BME280;37259;49.972;19.850;2023-05-11T04:51:56;98880;;;7.4;75.5
51195;BME280;37259;49.972;19.850;2023-05-11T04:52:56;98880;;;7.4;75.5
51195;BME280;37259;49.972;19.850;2023-05-11T04:53:56;98890;;;7.4;75.4
51195;BME280;37259;49.972;19.850;2023-05-11T04:54:56;98890;;;7.4;75.4
51195;BME280;37259;49.972;19.850;2023-05-11T04:55:56;98890;;;7.5;75.2
51195;BME280;37259;49.972;19.850;2023-05-11T04:56:56;98890;;;7.6;75.3
51195;BME280;37259;49.972;19.850;2023-05-11T04:57:57;98890;;;7.6;75.3
51195;BME280;37259;49.972;19.850;2023-05-11T04:58:56;98890;;;7.6;75.2
51195;BME280;37259;49.972;19.850;2023-05-11T04:59:56;98890;;;7.7;75.1
51195;BME280;37259;49.972;19.850;2023-05-11T05:00:56;98890;;;7.7;74.9
51195;BME280;37259;49.972;19.850;2023-05-11T05:01:56;98890;;;7.7;74.9
51195;BME280;37259;49.972;19.850;2023-05-11T05:02:56;98890;;;7.8;74.8
51195;BME280;37259;49.972;19.850;2023-05-11T05:03:57;98890;;;7.8;74.8
51195;BME280;37259;49.972;19.850;2023-05-11T05:04:57;98890;;;7.9;74.8
51195;BME280;37259;49.972;19.850;2023-05-11T05:05:56;98900;;;8;74.8
51195;BME280;37259;49.972;19.850;2023-05-11T05:06:56;98900;;;8;74.1
51195;BME280;37259;49.972;19.850;2023-05-11T05:07:57;98900;;;8;74.1
51195;BME280;37259;49.972;19.850;2023-05-11T05:08:56;98900;;;8.1;73.8
51195;BME280;37259;49.972;19.850;2023-05-11T05:09:57;98900;;;8.2;73.9
51195;BME280;37259;49.972;19.850;2023-05-11T05:10:56;98900;;;8.2;73.9
51195;BME280;37259;49.972;19.850;2023-05-11T05:11:56;98900;;;8.3;73.6
51195;BME280;37259;49.972;19.850;2023-05-11T05:12:57;98900;;;8.3;73.5
51195;BME280;37259;49.972;19.850;2023-05-11T05:13:56;98900;;;8.4;73.5
51195;BME280;37259;49.972;19.850;2023-05-11T05:14:56;98900;;;8.4;73.5
51195;BME280;37259;49.972;19.850;2023-05-11T05:15:57;98900;;;8.5;73.5
51195;BME280;37259;49.972;19.850;2023-05-11T05:16:56;98900;;;8.5;73.5
51195;BME280;37259;49.972;19.850;2023-05-11T05:17:56;98900;;;8.6;73.1
51195;BME280;37259;49.972;19.850;2023-05-11T05:18:57;98900;;;8.6;73.1
51195;BME280;37259;49.972;19.850;2023-05-11T05:19:56;98900;;;8.6;72.1
51195;BME280;37259;49.972;19.850;2023-05-11T05:20:57;98900;;;8.6;72.1
51195;BME280;37259;49.972;19.850;2023-05-11T05:21:56;98900;;;8.6;72.1
51195;BME280;37259;49.972;19.850;2023-05-11T05:22:57;98900;;;8.7;72.2
51195;BME280;37259;49.972;19.850;2023-05-11T05:23:56;98900;;;8.7;71.8
51195;BME280;37259;49.972;19.850;2023-05-11T05:24:56;98900;;;8.7;71.8
51195;BME280;37259;49.972;19.850;2023-05-11T05:25:56;98900;;;8.8;71.4
51195;BME280;37259;49.972;19.850;2023-05-11T05:26:56;98900;;;8.9;71.5
51195;BME280;37259;49.972;19.850;2023-05-11T05:27:56;98900;;;8.9;71.5
51195;BME280;37259;49.972;19.850;2023-05-11T05:28:57;98900;;;8.9;71.4
51195;BME280;37259;49.972;19.850;2023-05-11T05:29:56;98900;;;8.9;71.4
51195;BME280;37259;49.972;19.850;2023-05-11T05:30:56;98910;;;9;71.1
51195;BME280;37259;49.972;19.850;2023-05-11T05:31:57;98910;;;9;71.1
51195;BME280;37259;49.972;19.850;2023-05-11T05:32:57;98910;;;9;71.4
51195;BME280;37259;49.972;19.850;2023-05-11T05:33:57;98910;;;9;71.4
51195;BME280;37259;49.972;19.850;2023-05-11T05:34:57;98900;;;9.1;71.4
51195;BME280;37259;49.972;19.850;2023-05-11T05:35:57;98900;;;9.2;71.3
51195;BME280;37259;49.972;19.850;2023-05-11T05:36:57;98900;;;9.3;71.4
51195;BME280;37259;49.972;19.850;2023-05-11T05:37:57;98900;;;9.2;71.3
51195;BME280;37259;49.972;19.850;2023-05-11T05:38:57;98900;;;9.2;71.3
51195;BME280;37259;49.972;19.850;2023-05-11T05:39:57;98900;;;9.3;70.9
51195;BME280;37259;49.972;19.850;2023-05-11T05:40:57;98900;;;9.3;70.7
51195;BME280;37259;49.972;19.850;2023-05-11T05:41:57;98900;;;9.3;70.8
51195;BME280;37259;49.972;19.850;2023-05-11T05:42:57;98900;;;9.3;70.8